Weather observations for the past three days for
Russellville Regional Airport
Imperial (Metric)
Date Time (cdt) Wind (mph) Vis. (mi.) Weather Sky Cond. Temperature (ºF) Relative Humidity Wind Chill (°F) Heat Index (°F) Pressure Precipitation (in)
Air Dwpt 6 hour altimeter (in) sea level (mb) 1 hr 3 hr 6 hr
Max. Min.
03 17:53 Vrbl 3 10.00 Fair CLR 97 66.9 37% 101 29.89 1011.0
03 16:53 S 8 10.00 Fair CLR 98.1 68 38% 103 29.88 1011.0
03 15:53 SE 9 10.00 Mostly Cloudy BKN065 99 68 37% 105 29.9 1011.5
03 14:53 SE 9 10.00 A Few Clouds FEW060 98.1 69.1 39% 104 29.92 1012.2
03 13:53 Calm 10.00 A Few Clouds FEW055 96.1 69.1 41% 102 29.94 1012.9
03 12:53 Vrbl 6 10.00 Fair CLR 93.9 69.1 96.1 73 44% 99 29.97 1013.9
03 11:53 Vrbl 3 10.00 Fair CLR 91 71.1 52% 98 29.99 1014.7
03 10:53 Vrbl 3 10.00 Fair CLR 90 72 56% 97 30.01 1015.2
03 09:53 S 6 10.00 Fair CLR 87.1 72 61% 94 30.01 1015.2
03 08:53 Vrbl 3 10.00 Fair CLR 82.9 72 70% 88 30.02 1015.7
03 07:53 Calm 10.00 Fair CLR 78.1 73 85% 81 30.02 1015.6
03 06:53 Calm 10.00 Fair CLR 73 71.1 80.1 73 94% 30.01 1015.3
03 05:53 Calm 10.00 Fair CLR 73.9 71.1 91% 29.99 1014.7
03 04:53 Calm 10.00 Fair CLR 75 71.1 88% 75 29.98 1014.2
03 03:53 Calm 10.00 Fair CLR 75.9 71.1 85% 76 29.97 1013.9
03 02:53 Calm 10.00 Fair CLR 77 71.1 82% 79 29.97 1013.8
03 01:53 Calm 10.00 Fair CLR 78.1 72 82% 80 29.97 1014.0
03 00:53 Calm 10.00 Fair CLR 79 71.1 95 79 77% 82 29.97 1013.9
02 23:53 Calm 10.00 Fair CLR 82 72 72% 87 29.96 1013.7
02 22:53 Calm 10.00 Fair CLR 84 72 67% 90 29.96 1013.7
02 21:53 Calm 10.00 Fair CLR 84.9 71.1 63% 90 29.96 1013.7
02 20:53 Calm 10.00 Fair CLR 86 70 59% 91 29.95 1013.3
02 19:53 Calm 10.00 Fair CLR 91 69.1 49% 96 29.93 1012.7
02 18:53 Vrbl 6 10.00 Fair CLR 95 68 100 93.9 41% 100 29.92 1012.5
02 17:53 Vrbl 6 10.00 Fair CLR 97 69.1 40% 103 29.93 1012.6
02 16:53 S 8 G 17 10.00 Fair CLR 98.1 68 38% 103 29.94 1012.9
02 15:53 S 8 10.00 Fair CLR 99 68 37% 105 29.95 1013.4
02 14:53 Vrbl 5 10.00 Fair CLR 98.1 68 38% 103 29.97 1013.9
02 13:53 S 12 G 18 10.00 A Few Clouds FEW060 97 69.1 40% 103 30 1014.9
02 12:53 SE 8 10.00 Partly Cloudy SCT050 93.9 70 96.1 72 46% 100 30.02 1015.6
02 11:53 Vrbl 3 10.00 Fair CLR 93 71.1 49% 100 30.05 1016.5
02 10:53 S 6 10.00 Fair CLR 91.9 71.1 51% 99 30.06 1016.9
02 09:53 Calm 10.00 Fair CLR 88 70 55% 93 30.06 1016.9
02 07:53 Calm 10.00 Fair CLR 77 71.1 82% 79 30.06 1016.9
02 06:53 Calm 10.00 Fair CLR 72 70 78.1 72 94% 30.04 1016.5
02 05:53 Calm 10.00 Fair CLR 73 70 90% 30.03 1016.0
02 04:53 Calm 10.00 Fair CLR 73.9 70 88% 30.02 1015.7
02 03:53 Calm 10.00 Fair CLR 75 70 84% 75 30.01 1015.4
02 02:53 Calm 10.00 Fair CLR 75.9 69.1 79% 77 30.01 1015.4
02 01:53 Calm 10.00 Fair CLR 75.9 69.1 79% 77 30.02 1015.5
02 00:53 Calm 10.00 Fair CLR 77 69.1 95 77 77% 79 30.01 1015.3
01 23:53 Calm 10.00 Fair CLR 80.1 68 67% 83 30 1015.0
01 22:53 Calm 10.00 Fair CLR 81 66.9 62% 83 30 1014.8
01 21:53 Calm 10.00 Fair CLR 84.9 66.9 55% 88 29.99 1014.5
01 20:53 Calm 10.00 Fair CLR 84.9 68 57% 88 29.97 1013.9
01 19:53 Calm 10.00 Fair CLR 90 66.9 47% 93 29.96 1013.6
01 18:53 Vrbl 5 10.00 Fair CLR 95 68 100.9 95 41% 100 29.96 1013.6
01 17:53 Vrbl 5 10.00 Partly Cloudy SCT100 98.1 66.9 36% 103 29.97 1013.8
01 16:53 Vrbl 6 10.00 Fair CLR 98.1 68 38% 103 29.97 1013.8
01 15:53 Vrbl 3 10.00 A Few Clouds FEW070 100 68 35% 106 29.97 1014.0
01 14:53 Vrbl 5 10.00 A Few Clouds FEW120 98.1 68 38% 103 29.99 1014.7
01 13:53 S 6 10.00 Fair CLR 98.1 66.9 36% 103 30.01 1015.3
01 12:53 S 7 10.00 Fair CLR 96.1 69.1 96.1 72 41% 102 30.05 1016.5
01 11:53 Vrbl 3 10.00 Fair CLR 93 69.1 46% 98 30.07 1017.2
01 10:53 SW 8 10.00 Fair CLR 93 70 47% 99 30.08 1017.6
01 09:53 Vrbl 6 10.00 Fair CLR 89.1 70 53% 94 30.08 1017.7
01 08:53 Calm 10.00 Fair CLR 84.9 71.1 63% 90 30.09 1018.0
01 07:53 Calm 10.00 Fair CLR 75.9 71.1 85% 76 30.08 1017.8
01 06:53 Calm 10.00 Fair CLR 72 70 77 72 94% 30.06 1017.2
01 05:53 Calm 10.00 Fair CLR 73 70 90% 30.05 1016.8
01 04:53 Calm 10.00 Fair CLR 73 70 90% 30.04 1016.3
01 03:53 Calm 10.00 Fair CLR 73.9 70 88% 30.04 1016.2
01 02:53 Calm 10.00 Fair CLR 75 70 84% 75 30.03 1015.9
01 01:53 Calm 10.00 Fair CLR 75.9 70 82% 77 30.02 1015.7
01 00:53 Calm 10.00 Fair CLR 77 70 95 77 79% 79 30.02 1015.6
31 23:53 Calm 10.00 Fair CLR 79 69.1 72% 82 30.02 1015.5
31 22:53 Calm 10.00 Fair CLR 81 69.1 67% 84 30.01 1015.3
31 21:53 Calm 10.00 Fair CLR 82 69.1 65% 85 30.01 1015.3
31 20:53 Calm 10.00 Fair CLR 84 66.9 57% 87 29.99 1014.7
31 19:53 Calm 10.00 Fair CLR 88 64.9 46% 90 29.97 1014.1
31 18:53 E 5 10.00 Fair CLR 95 64 100 95 36% 97 29.97 1013.9
Date Time (cdt) Wind (mph) Vis. (mi.) Weather Sky Cond. Air Dwpt Max. Min. Relative Humidity Wind Chill (°F) Heat Index (°F) altimeter (in) sea level (mb) 1 hr 3 hr 6 hr
6 hour
Temperature (ºF) Pressure Precipitation (in)